Rechercher aéroport 
image banner adimage banner adimage banner ad
image banner ad

CA658 - Fort Mcpherson (Ceu7)

Situé à , Canada

ICAO - , IATA -

Données fournies par Airmate  

Information générale

Coordonnées: N67°27'0" W134°52'60"
Élévation : feet MSL.
 
Voir autres Aéroports à Northwest Territories

Données opérationnelles

Special qualification required
Heure actuelle UTC:
Heure actuelle locale:
Météo à : CZFM - Fort Mcpherson ( 5 km )
METAR: CZFM 062300Z 14007KT 35SM BKN250 M10/M13 A2937 RMK CS6 SLP951
TAF: TAF CZFM 061840Z 0619/0624 17007KT P6SM FEW080 SCT230 RMK NXT FCST BY 071600Z
Voir NOTAMs / SUP AIP / TFR affectant cet aéroport [VIEW]
Fréquences de communication: [VIEW]

Pistes:

Coordonnées de l'aéroport

Adresse: Canada

Vue satellite de CA658